createdAt,value
2017-09-29T00:00:52.609Z,14.92
2017-09-29T00:01:52.538Z,15.02
2017-09-29T00:02:53.644Z,14.91
2017-09-29T00:03:52.561Z,14.99
2017-09-29T00:04:52.634Z,14.97
2017-09-29T00:05:52.579Z,14.97
2017-09-29T00:06:58.585Z,14.94
2017-09-29T00:07:52.610Z,14.97
2017-09-29T00:08:54.710Z,14.99
2017-09-29T00:09:52.623Z,15.02
2017-09-29T00:10:52.671Z,15.02
2017-09-29T00:11:52.647Z,15.09
2017-09-29T00:12:52.688Z,15.03
2017-09-29T00:13:52.669Z,15.02
2017-09-29T00:14:52.700Z,14.99
2017-09-29T00:15:52.685Z,15.04
2017-09-29T00:16:52.698Z,14.99
2017-09-29T00:17:52.707Z,15.07
2017-09-29T00:18:52.826Z,15.03
2017-09-29T00:19:52.734Z,15.09
2017-09-29T00:20:52.843Z,15.07
2017-09-29T00:21:52.749Z,15.06
2017-09-29T00:22:52.851Z,15.02
2017-09-29T00:23:52.778Z,15.09
2017-09-29T00:24:52.866Z,15.07
2017-09-29T00:25:52.792Z,15.04
2017-09-29T00:26:52.875Z,15.07
2017-09-29T00:27:52.825Z,15.14
2017-09-29T00:28:52.906Z,15.07
2017-09-29T00:29:52.839Z,15.18
2017-09-29T00:30:52.846Z,15.06
2017-09-29T00:31:52.854Z,15.07
2017-09-29T00:32:52.915Z,15.11
2017-09-29T00:33:52.884Z,15.06
2017-09-29T00:34:52.928Z,15.07
2017-09-29T00:35:52.894Z,15.19
2017-09-29T00:36:52.940Z,15.11
2017-09-29T00:37:52.917Z,15.11
2017-09-29T00:38:52.953Z,15.09
2017-09-29T00:39:52.935Z,15.06
2017-09-29T00:40:52.967Z,15.09
2017-09-29T00:41:52.961Z,15.04
2017-09-29T00:42:52.980Z,15.07
2017-09-29T00:43:52.982Z,15.09
2017-09-29T00:44:53.095Z,15.11
2017-09-29T00:45:53.001Z,15.11
2017-09-29T00:46:53.122Z,15.14
2017-09-29T00:47:53.022Z,15.10
2017-09-29T00:48:53.119Z,15.10
2017-09-29T00:49:53.044Z,15.11
2017-09-29T00:50:53.132Z,15.11
2017-09-29T00:51:53.063Z,15.09
2017-09-29T00:52:53.145Z,15.07
2017-09-29T00:53:53.085Z,15.09
2017-09-29T00:54:54.184Z,15.07
2017-09-29T00:55:53.103Z,15.06
2017-09-29T00:56:53.173Z,15.15
2017-09-29T00:57:53.124Z,15.11
2017-09-29T00:58:53.191Z,15.17
2017-09-29T00:59:53.146Z,15.15
2017-09-29T01:00:53.156Z,15.14
2017-09-29T01:01:53.206Z,15.21
2017-09-29T01:02:53.181Z,15.19
2017-09-29T01:03:53.215Z,15.14
2017-09-29T01:04:53.194Z,15.07
2017-09-29T01:05:53.212Z,15.09
2017-09-29T01:06:53.224Z,15.04
2017-09-29T01:07:53.240Z,15.06
2017-09-29T01:08:53.239Z,15.07
2017-09-29T01:09:53.356Z,15.07
2017-09-29T01:10:53.259Z,15.07
2017-09-29T01:11:53.369Z,15.07
2017-09-29T01:12:53.283Z,15.21
2017-09-29T01:13:54.414Z,15.14
2017-09-29T01:14:53.303Z,15.18
2017-09-29T01:15:53.317Z,15.22
2017-09-29T01:16:53.402Z,15.15
2017-09-29T01:17:53.337Z,15.11
2017-09-29T01:18:54.438Z,15.21
2017-09-29T01:19:53.355Z,15.15
2017-09-29T01:20:53.427Z,15.11
2017-09-29T01:21:53.374Z,15.14
2017-09-29T01:22:53.441Z,15.17
2017-09-29T01:23:53.393Z,15.18
2017-09-29T01:24:55.060Z,15.21
2017-09-29T01:25:53.416Z,15.15
2017-09-29T01:26:53.464Z,15.19
2017-09-29T01:27:53.443Z,15.14
2017-09-29T01:28:53.481Z,15.21
2017-09-29T01:29:53.455Z,15.21
2017-09-29T01:30:54.515Z,15.19
2017-09-29T01:31:53.478Z,15.25
2017-09-29T01:32:53.508Z,15.24
2017-09-29T01:33:53.497Z,15.15
2017-09-29T01:34:53.620Z,15.14
2017-09-29T01:35:53.521Z,15.25
2017-09-29T01:36:55.577Z,15.24
2017-09-29T01:37:53.544Z,15.21
2017-09-29T01:38:53.645Z,15.25
2017-09-29T01:39:53.564Z,15.29
2017-09-29T01:40:54.683Z,15.27
2017-09-29T01:41:53.584Z,15.27
2017-09-29T01:42:54.695Z,15.29
2017-09-29T01:43:53.603Z,15.28
2017-09-29T01:44:54.708Z,15.28
2017-09-29T01:45:53.621Z,15.29
2017-09-29T01:46:54.723Z,15.28
2017-09-29T01:47:53.642Z,15.29
2017-09-29T01:48:54.736Z,15.28
2017-09-29T01:49:53.665Z,15.25
2017-09-29T01:50:53.724Z,15.28
2017-09-29T01:51:53.690Z,15.33
2017-09-29T01:52:54.765Z,15.33
2017-09-29T01:53:53.706Z,15.28
2017-09-29T01:54:55.797Z,15.33
2017-09-29T01:55:53.728Z,15.29
2017-09-29T01:56:55.813Z,15.35
2017-09-29T01:57:53.745Z,15.36
2017-09-29T01:58:55.822Z,15.36
2017-09-29T01:59:53.765Z,15.37
2017-09-29T02:00:53.891Z,15.37
2017-09-29T02:01:53.793Z,15.29
2017-09-29T02:02:53.799Z,15.42
2017-09-29T02:03:53.912Z,15.29
2017-09-29T02:04:55.572Z,15.36
2017-09-29T02:05:54.950Z,15.36
2017-09-29T02:06:53.842Z,15.39
2017-09-29T02:07:53.939Z,15.44
2017-09-29T02:08:53.867Z,15.40
2017-09-29T02:09:53.947Z,15.40
2017-09-29T02:11:08.599Z,15.43
2017-09-29T02:11:53.893Z,15.36
2017-09-29T02:12:53.910Z,15.37
2017-09-29T02:13:53.910Z,15.43
2017-09-29T02:14:53.983Z,15.37
2017-09-29T02:15:53.934Z,15.43
2017-09-29T02:16:55.020Z,15.42
2017-09-29T02:17:53.962Z,15.42
2017-09-29T02:18:54.006Z,15.44
2017-09-29T02:19:53.976Z,15.42
2017-09-29T02:20:55.000Z,15.42
2017-09-29T02:21:53.994Z,15.36
2017-09-29T02:22:54.034Z,15.44
2017-09-29T02:23:54.017Z,15.40
2017-09-29T02:24:54.049Z,15.47
2017-09-29T02:25:54.037Z,15.44
2017-09-29T02:26:55.084Z,15.40
2017-09-29T02:27:54.062Z,15.40
2017-09-29T02:28:55.099Z,15.47
2017-09-29T02:29:54.080Z,15.47
2017-09-29T02:30:56.134Z,15.47
2017-09-29T02:31:54.100Z,15.49
2017-09-29T02:32:54.203Z,15.47
2017-09-29T02:33:54.130Z,15.47
2017-09-29T02:34:54.289Z,15.46
2017-09-29T02:35:54.146Z,15.49
2017-09-29T02:36:54.227Z,15.49
2017-09-29T02:37:54.159Z,15.49
2017-09-29T02:38:54.241Z,15.55
2017-09-29T02:39:54.180Z,15.46
2017-09-29T02:40:54.254Z,15.52
2017-09-29T02:41:54.206Z,15.59
2017-09-29T02:42:54.267Z,15.55
2017-09-29T02:43:54.221Z,15.61
2017-09-29T02:44:54.237Z,15.57
2017-09-29T02:45:54.242Z,15.55
2017-09-29T02:46:54.290Z,15.62
2017-09-29T02:47:54.262Z,15.64
2017-09-29T02:48:54.305Z,15.67
2017-09-29T02:49:54.290Z,15.64
2017-09-29T02:50:54.299Z,15.68
2017-09-29T02:51:54.303Z,15.64
2017-09-29T02:52:54.437Z,15.68
2017-09-29T02:53:54.322Z,15.67
2017-09-29T02:54:54.444Z,15.72
2017-09-29T02:55:54.346Z,15.65
2017-09-29T02:56:54.460Z,15.76
2017-09-29T02:57:54.364Z,15.70
2017-09-29T02:58:54.507Z,15.73
2017-09-29T02:59:54.390Z,15.68
2017-09-29T03:00:54.481Z,15.64
2017-09-29T03:01:54.412Z,15.73
2017-09-29T03:02:54.494Z,15.70
2017-09-29T03:03:54.433Z,15.68
2017-09-29T03:04:54.508Z,15.77
2017-09-29T03:05:54.450Z,15.70
2017-09-29T03:06:54.520Z,15.76
2017-09-29T03:07:54.469Z,15.70
2017-09-29T03:08:54.534Z,15.76
2017-09-29T03:09:54.491Z,15.73
2017-09-29T03:10:54.548Z,15.73
2017-09-29T03:11:54.516Z,15.79
2017-09-29T03:12:54.560Z,15.83
2017-09-29T03:13:54.532Z,15.86
2017-09-29T03:14:54.540Z,15.82
2017-09-29T03:15:54.576Z,15.70
2017-09-29T03:16:54.561Z,15.86
2017-09-29T03:17:54.601Z,15.83
2017-09-29T03:18:54.582Z,15.80
2017-09-29T03:19:54.602Z,15.75
2017-09-29T03:20:54.600Z,15.75
2017-09-29T03:21:54.721Z,15.76
2017-09-29T03:22:54.627Z,15.75
2017-09-29T03:23:54.732Z,15.76
2017-09-29T03:24:54.644Z,15.79
2017-09-29T03:25:56.691Z,15.79
2017-09-29T03:26:54.663Z,15.80
2017-09-29T03:27:55.782Z,15.80
2017-09-29T03:28:54.684Z,15.77
2017-09-29T03:29:54.771Z,15.76
2017-09-29T03:30:54.707Z,15.76
2017-09-29T03:31:54.782Z,15.83
2017-09-29T03:32:54.727Z,15.84
2017-09-29T03:33:56.849Z,15.80
2017-09-29T03:34:54.745Z,15.75
2017-09-29T03:35:59.620Z,15.84
2017-09-29T03:36:54.767Z,15.90
2017-09-29T03:37:54.826Z,15.84
2017-09-29T03:38:54.788Z,15.90
2017-09-29T03:39:54.834Z,15.90
2017-09-29T03:40:54.808Z,15.80
2017-09-29T03:41:54.854Z,15.84
2017-09-29T03:42:54.827Z,15.83
2017-09-29T03:43:54.862Z,15.83
2017-09-29T03:44:54.882Z,15.84
2017-09-29T03:45:55.898Z,15.82
2017-09-29T03:46:54.869Z,15.86
2017-09-29T03:47:54.992Z,15.83
2017-09-29T03:48:54.889Z,15.83
2017-09-29T03:49:55.001Z,15.83
2017-09-29T03:50:54.919Z,15.83
2017-09-29T03:51:55.072Z,15.86
2017-09-29T03:52:54.932Z,15.84
2017-09-29T03:53:56.053Z,15.94
2017-09-29T03:54:54.952Z,15.83
2017-09-29T03:55:56.987Z,15.92
2017-09-29T03:56:54.970Z,15.88
2017-09-29T03:57:56.079Z,15.84
2017-09-29T03:58:54.993Z,15.91
2017-09-29T03:59:55.065Z,15.91
2017-09-29T04:00:55.016Z,15.90
2017-09-29T04:01:55.079Z,15.95
2017-09-29T04:02:55.036Z,15.92
2017-09-29T04:03:55.094Z,15.92
2017-09-29T04:04:55.059Z,15.94
2017-09-29T04:05:55.108Z,15.94
2017-09-29T04:06:55.083Z,15.95
2017-09-29T04:07:55.119Z,15.91
2017-09-29T04:08:55.093Z,15.95
2017-09-29T04:09:55.134Z,15.82
2017-09-29T04:10:55.122Z,15.86
2017-09-29T04:11:56.167Z,15.86
2017-09-29T04:12:55.162Z,15.83
2017-09-29T04:13:55.159Z,15.88
2017-09-29T04:14:55.158Z,15.91
2017-09-29T04:15:55.274Z,15.90
2017-09-29T04:16:55.175Z,15.94
2017-09-29T04:17:55.287Z,15.79
2017-09-29T04:18:55.197Z,15.86
2017-09-29T04:19:56.329Z,15.84
2017-09-29T04:20:55.215Z,15.83
2017-09-29T04:21:55.312Z,15.83
2017-09-29T04:22:55.238Z,15.83
2017-09-29T04:23:55.247Z,15.86
2017-09-29T04:24:55.332Z,15.84
2017-09-29T04:25:55.270Z,15.83
2017-09-29T04:26:55.344Z,15.83
2017-09-29T04:27:55.290Z,15.90
2017-09-29T04:28:55.356Z,15.90
2017-09-29T04:29:55.310Z,15.82
2017-09-29T04:30:55.369Z,15.80
2017-09-29T04:31:55.333Z,15.84
2017-09-29T04:32:55.382Z,15.84
2017-09-29T04:33:55.351Z,15.84
2017-09-29T04:34:55.395Z,15.83
2017-09-29T04:35:55.374Z,15.86
2017-09-29T04:36:55.381Z,15.82
2017-09-29T04:37:56.440Z,15.80
2017-09-29T04:38:55.400Z,15.84
2017-09-29T04:39:55.430Z,15.88
2017-09-29T04:40:55.423Z,15.86
2017-09-29T04:41:55.546Z,15.80
2017-09-29T04:42:55.445Z,15.88
2017-09-29T04:43:56.477Z,15.77
2017-09-29T04:44:55.464Z,15.84
2017-09-29T04:45:56.492Z,15.82
2017-09-29T04:46:55.487Z,15.84
2017-09-29T04:47:55.583Z,15.84
2017-09-29T04:48:55.508Z,15.80
2017-09-29T04:49:55.594Z,15.86
2017-09-29T04:50:55.529Z,15.88
2017-09-29T04:51:55.607Z,15.80
2017-09-29T04:52:55.547Z,15.84
2017-09-29T04:53:55.618Z,15.86
2017-09-29T04:54:55.566Z,15.90
2017-09-29T04:55:55.634Z,15.83
2017-09-29T04:56:55.589Z,15.88
2017-09-29T04:57:55.597Z,15.82
2017-09-29T04:58:55.655Z,15.86
2017-09-29T04:59:55.616Z,15.88
2017-09-29T05:00:55.668Z,15.82
2017-09-29T05:01:55.637Z,15.86
2017-09-29T05:02:55.678Z,15.83
2017-09-29T05:03:55.657Z,15.88
2017-09-29T05:04:55.693Z,15.86
2017-09-29T05:05:55.677Z,15.90
2017-09-29T05:06:55.687Z,15.83
2017-09-29T05:07:55.716Z,15.92
2017-09-29T05:08:55.709Z,15.84
2017-09-29T05:09:55.823Z,15.84
2017-09-29T05:10:55.733Z,15.82
2017-09-29T05:11:55.839Z,15.80
2017-09-29T05:12:55.749Z,15.94
2017-09-29T05:13:55.849Z,15.80
2017-09-29T05:14:55.771Z,15.90
2017-09-29T05:15:55.866Z,15.94
2017-09-29T05:16:55.789Z,15.92
2017-09-29T05:17:55.879Z,15.94
2017-09-29T05:18:55.813Z,15.95
2017-09-29T05:19:55.891Z,15.91
2017-09-29T05:20:55.831Z,15.97
2017-09-29T05:21:55.902Z,15.97
2017-09-29T05:22:55.853Z,15.97
2017-09-29T05:23:55.914Z,15.97
2017-09-29T05:24:55.872Z,16.01
2017-09-29T05:25:55.926Z,15.95
2017-09-29T05:26:55.896Z,15.97
2017-09-29T05:27:55.941Z,15.95
2017-09-29T05:28:55.917Z,15.92
2017-09-29T05:29:55.954Z,15.95
2017-09-29T05:30:55.933Z,15.95
2017-09-29T05:31:55.947Z,16.01
2017-09-29T05:32:56.068Z,16.01
2017-09-29T05:33:55.963Z,16.04
2017-09-29T05:34:56.083Z,16.12
2017-09-29T05:35:55.989Z,16.09
2017-09-29T05:36:56.200Z,16.09
2017-09-29T05:37:56.005Z,16.04
2017-09-29T05:38:56.210Z,16.05
2017-09-29T05:39:56.026Z,16.08
2017-09-29T05:40:56.226Z,16.04
2017-09-29T05:41:56.052Z,16.08
2017-09-29T05:42:56.238Z,16.08
2017-09-29T05:43:56.068Z,16.15
2017-09-29T05:44:56.253Z,16.10
2017-09-29T05:45:56.088Z,16.15
2017-09-29T05:46:56.267Z,16.13
2017-09-29T05:47:56.112Z,16.16
2017-09-29T05:48:56.280Z,16.15
2017-09-29T05:49:56.128Z,16.15
2017-09-29T05:50:56.293Z,16.16
2017-09-29T05:51:56.151Z,16.15
2017-09-29T05:52:56.307Z,16.20
2017-09-29T05:53:56.173Z,16.15
2017-09-29T05:54:56.332Z,16.23
2017-09-29T05:55:56.254Z,16.15
2017-09-29T05:56:56.202Z,16.21
2017-09-29T05:57:56.214Z,16.29
2017-09-29T05:58:56.222Z,16.17
2017-09-29T05:59:56.233Z,16.26
2017-09-29T06:00:56.239Z,16.31
2017-09-29T06:01:56.367Z,16.29
2017-09-29T06:02:56.259Z,16.26
2017-09-29T06:03:56.277Z,16.35
2017-09-29T06:04:56.490Z,16.29
2017-09-29T06:05:56.290Z,16.32
2017-09-29T06:06:56.300Z,16.36
2017-09-29T06:07:56.311Z,16.36
2017-09-29T06:08:56.324Z,16.35
2017-09-29T06:09:57.169Z,16.39
2017-09-29T06:10:56.341Z,16.43
2017-09-29T06:11:56.352Z,16.41
2017-09-29T06:12:56.363Z,16.42
2017-09-29T06:13:56.377Z,16.43
2017-09-29T06:14:56.383Z,16.43
2017-09-29T06:15:56.393Z,16.36
2017-09-29T06:16:56.409Z,16.33
2017-09-29T06:17:56.418Z,16.46
2017-09-29T06:18:56.425Z,16.50
2017-09-29T06:19:56.450Z,16.33
2017-09-29T06:20:56.441Z,16.36
2017-09-29T06:21:56.458Z,16.35
2017-09-29T06:22:56.460Z,16.49
2017-09-29T06:23:56.475Z,16.47
2017-09-29T06:24:56.632Z,16.41
2017-09-29T06:25:56.503Z,16.43
2017-09-29T06:26:56.504Z,16.43
2017-09-29T06:27:56.550Z,16.49
2017-09-29T06:28:56.525Z,16.51
2017-09-29T06:29:56.534Z,16.54
2017-09-29T06:30:56.550Z,16.54
2017-09-29T06:31:56.555Z,16.58
2017-09-29T06:32:56.566Z,16.58
2017-09-29T06:33:56.575Z,16.61
2017-09-29T06:34:56.589Z,16.66
2017-09-29T06:35:56.597Z,16.71
2017-09-29T06:36:56.603Z,16.74
2017-09-29T06:37:56.617Z,16.72
2017-09-29T06:38:56.635Z,16.78
2017-09-29T06:39:56.640Z,16.81
2017-09-29T06:40:56.647Z,16.86
2017-09-29T06:41:56.744Z,16.79
2017-09-29T06:42:56.672Z,16.79
2017-09-29T06:43:56.683Z,16.83
2017-09-29T06:44:56.716Z,16.81
2017-09-29T06:45:56.699Z,16.81
2017-09-29T06:46:56.709Z,16.87
2017-09-29T06:47:56.737Z,16.81
2017-09-29T06:48:56.730Z,16.89
2017-09-29T06:49:56.780Z,16.78
2017-09-29T06:50:56.752Z,16.75
2017-09-29T06:51:56.760Z,16.78
2017-09-29T06:52:56.774Z,16.81
2017-09-29T06:53:56.784Z,16.81
2017-09-29T06:54:56.790Z,16.83
2017-09-29T06:55:56.800Z,16.83
2017-09-29T06:56:56.844Z,16.87
2017-09-29T06:57:56.820Z,16.84
2017-09-29T06:58:56.961Z,16.89
2017-09-29T06:59:56.843Z,16.87
2017-09-29T07:00:56.976Z,16.86
2017-09-29T07:01:56.858Z,16.94
2017-09-29T07:02:57.012Z,16.89
2017-09-29T07:03:56.914Z,16.97
2017-09-29T07:04:56.894Z,16.90
2017-09-29T07:05:56.904Z,17.04
2017-09-29T07:06:56.912Z,17.04
2017-09-29T07:07:56.925Z,17.02
2017-09-29T07:08:56.934Z,17.06
2017-09-29T07:09:56.942Z,17.14
2017-09-29T07:10:56.952Z,17.09
2017-09-29T07:11:56.966Z,17.19
2017-09-29T07:12:56.976Z,17.20
2017-09-29T07:13:56.983Z,17.27
2017-09-29T07:14:57.067Z,17.24
2017-09-29T07:15:57.005Z,17.23
2017-09-29T07:16:58.106Z,17.30
2017-09-29T07:17:57.023Z,17.23
2017-09-29T07:18:57.098Z,17.24
2017-09-29T07:19:57.048Z,17.22
2017-09-29T07:20:57.054Z,17.27
2017-09-29T07:21:57.115Z,17.31
2017-09-29T07:22:57.078Z,17.23
2017-09-29T07:23:57.129Z,17.26
2017-09-29T07:24:57.094Z,17.23
2017-09-29T07:25:57.246Z,17.24
2017-09-29T07:26:57.117Z,17.31
2017-09-29T07:27:57.256Z,17.34
2017-09-29T07:28:57.138Z,17.39
2017-09-29T07:29:57.275Z,17.39
2017-09-29T07:30:57.159Z,17.44
2017-09-29T07:31:57.291Z,17.44
2017-09-29T07:32:57.176Z,17.60
2017-09-29T07:33:57.186Z,17.64
2017-09-29T07:34:58.335Z,17.79
2017-09-29T07:35:57.209Z,17.79
2017-09-29T07:36:57.224Z,17.90
2017-09-29T07:37:57.329Z,17.90
2017-09-29T07:38:57.237Z,18.05
2017-09-29T07:39:57.339Z,18.00
2017-09-29T07:40:57.260Z,18.16
2017-09-29T07:41:57.352Z,18.16
2017-09-29T07:42:57.285Z,18.16
2017-09-29T07:43:57.368Z,18.13
2017-09-29T07:44:57.297Z,18.19
2017-09-29T07:45:57.382Z,18.29
2017-09-29T07:46:57.320Z,18.23
2017-09-29T07:47:57.330Z,18.22
2017-09-29T07:48:58.452Z,18.38
2017-09-29T07:49:57.382Z,18.44
2017-09-29T07:50:57.427Z,18.47
2017-09-29T07:51:57.372Z,18.33
2017-09-29T07:52:57.432Z,18.45
2017-09-29T07:53:57.393Z,18.44
2017-09-29T07:54:57.545Z,18.56
2017-09-29T07:55:57.413Z,18.53
2017-09-29T07:56:59.501Z,18.60
2017-09-29T07:57:57.438Z,18.60
2017-09-29T07:58:57.585Z,18.63
2017-09-29T07:59:57.455Z,18.55
2017-09-29T08:00:57.472Z,18.62
2017-09-29T08:01:57.483Z,18.77
2017-09-29T08:02:57.605Z,18.74
2017-09-29T08:03:57.493Z,18.70
2017-09-29T08:04:57.611Z,18.65
2017-09-29T08:05:57.515Z,18.77
2017-09-29T08:06:57.625Z,18.59
2017-09-29T08:07:57.537Z,18.65
2017-09-29T08:08:57.639Z,18.65
2017-09-29T08:09:57.561Z,18.59
2017-09-29T08:10:58.676Z,18.60
2017-09-29T08:11:57.576Z,18.62
2017-09-29T08:12:57.586Z,18.63
2017-09-29T08:14:02.281Z,18.59
2017-09-29T08:14:57.608Z,18.53
2017-09-29T08:15:57.689Z,18.59
2017-09-29T08:16:57.630Z,18.56
2017-09-29T08:18:13.265Z,18.56
2017-09-29T08:18:57.646Z,18.55
2017-09-29T08:19:57.816Z,18.59
2017-09-29T08:20:57.681Z,18.53
2017-09-29T08:21:57.828Z,18.65
2017-09-29T08:22:57.696Z,18.66
2017-09-29T08:23:57.842Z,18.63
2017-09-29T08:24:57.706Z,18.68
2017-09-29T08:25:58.885Z,18.75
2017-09-29T08:26:57.730Z,18.74
2017-09-29T08:27:57.879Z,18.80
2017-09-29T08:28:57.751Z,18.80
2017-09-29T08:29:57.758Z,18.80
2017-09-29T08:30:57.889Z,18.83
2017-09-29T08:31:57.781Z,18.86
2017-09-29T08:32:57.904Z,18.89
2017-09-29T08:33:57.804Z,18.93
2017-09-29T08:34:57.917Z,18.99
2017-09-29T08:35:57.822Z,19.04
2017-09-29T08:36:57.840Z,19.11
2017-09-29T08:37:58.963Z,19.24
2017-09-29T08:38:57.852Z,19.31
2017-09-29T08:39:57.949Z,19.36
2017-09-29T08:40:57.874Z,19.37
2017-09-29T08:41:57.969Z,19.48
2017-09-29T08:42:57.897Z,19.56
2017-09-29T08:43:59.004Z,19.67
2017-09-29T08:44:57.915Z,19.55
2017-09-29T08:45:58.095Z,19.73
2017-09-29T08:46:57.937Z,19.66
2017-09-29T08:47:58.119Z,19.71
2017-09-29T08:48:57.999Z,19.77
2017-09-29T08:49:58.122Z,19.76
2017-09-29T08:50:57.981Z,19.76
2017-09-29T08:51:58.149Z,19.67
2017-09-29T08:52:57.998Z,19.76
2017-09-29T08:53:58.149Z,19.76
2017-09-29T08:54:58.021Z,19.63
2017-09-29T08:55:58.162Z,19.56
2017-09-29T08:56:58.042Z,19.67
2017-09-29T08:57:58.055Z,19.73
2017-09-29T08:58:58.182Z,19.58
2017-09-29T08:59:58.070Z,19.62
2017-09-29T09:00:58.194Z,19.62
2017-09-29T09:01:58.099Z,19.59
2017-09-29T09:02:58.209Z,19.63
2017-09-29T09:03:58.115Z,19.52
2017-09-29T09:04:58.237Z,19.52
2017-09-29T09:05:58.135Z,19.51
2017-09-29T09:06:58.236Z,19.56
2017-09-29T09:07:58.159Z,19.64
2017-09-29T09:08:58.253Z,19.69
2017-09-29T09:09:58.177Z,19.79
2017-09-29T09:10:58.270Z,19.96
2017-09-29T09:11:58.198Z,19.92
2017-09-29T09:12:58.381Z,20.03
2017-09-29T09:13:58.218Z,20.11
2017-09-29T09:14:58.394Z,20.13
2017-09-29T09:15:58.239Z,20.25
2017-09-29T09:16:58.407Z,20.34
2017-09-29T09:17:58.260Z,20.26
2017-09-29T09:18:58.418Z,20.39
2017-09-29T09:19:58.283Z,20.37
2017-09-29T09:20:58.434Z,20.36
2017-09-29T09:21:58.304Z,20.41
2017-09-29T09:23:00.495Z,20.44
2017-09-29T09:23:59.217Z,20.40
2017-09-29T09:24:58.466Z,20.36
2017-09-29T09:25:58.372Z,20.39
2017-09-29T09:26:58.475Z,20.39
2017-09-29T09:27:58.367Z,20.36
2017-09-29T09:28:58.488Z,20.52
2017-09-29T09:29:58.387Z,20.44
2017-09-29T09:30:58.502Z,20.41
2017-09-29T09:31:58.410Z,20.52
2017-09-29T09:32:58.514Z,20.52
2017-09-29T09:33:58.429Z,20.47
2017-09-29T09:34:58.532Z,20.51
2017-09-29T09:35:58.450Z,20.47
2017-09-29T09:36:58.643Z,20.51
2017-09-29T09:37:58.469Z,20.52
2017-09-29T09:38:58.659Z,20.50
2017-09-29T09:39:58.491Z,20.43
2017-09-29T09:40:58.675Z,20.41
2017-09-29T09:41:58.525Z,20.50
2017-09-29T09:42:58.688Z,20.51
2017-09-29T09:43:58.539Z,20.50
2017-09-29T09:44:58.697Z,20.48
2017-09-29T09:45:58.555Z,20.43
2017-09-29T09:46:58.709Z,20.43
2017-09-29T09:47:58.576Z,20.41
2017-09-29T09:48:59.750Z,20.52
2017-09-29T09:49:58.599Z,20.51
2017-09-29T09:50:59.768Z,20.60
2017-09-29T09:51:58.646Z,20.67
2017-09-29T09:52:58.757Z,20.69
2017-09-29T09:53:58.643Z,20.82
2017-09-29T09:54:58.768Z,20.81
2017-09-29T09:55:58.663Z,20.81
2017-09-29T09:56:58.678Z,21.00
2017-09-29T09:57:58.789Z,21.14
2017-09-29T09:58:58.697Z,21.29
2017-09-29T10:00:00.854Z,21.35
2017-09-29T10:00:58.717Z,21.33
2017-09-29T10:01:58.917Z,21.46
2017-09-29T10:02:58.741Z,21.45
2017-09-29T10:03:58.937Z,21.39
2017-09-29T10:04:58.760Z,21.21
2017-09-29T10:05:58.943Z,21.12
2017-09-29T10:06:58.787Z,21.09
2017-09-29T10:07:58.959Z,21.03
2017-09-29T10:08:58.807Z,21.12
2017-09-29T10:09:58.970Z,21.15
2017-09-29T10:10:58.828Z,21.12
2017-09-29T10:11:58.988Z,21.22
2017-09-29T10:12:58.846Z,21.37
2017-09-29T10:13:59.000Z,21.46
2017-09-29T10:14:58.876Z,21.67
2017-09-29T10:15:59.011Z,21.72
2017-09-29T10:16:58.891Z,21.80
2017-09-29T10:17:59.036Z,21.95
2017-09-29T10:18:58.913Z,21.93
2017-09-29T10:19:58.962Z,21.95
2017-09-29T10:20:58.935Z,22.00
2017-09-29T10:21:59.999Z,22.07
2017-09-29T10:22:58.959Z,21.93
2017-09-29T10:23:58.975Z,21.95
2017-09-29T10:24:59.097Z,21.96
2017-09-29T10:25:58.991Z,22.00
2017-09-29T10:26:59.111Z,21.96
2017-09-29T10:27:59.015Z,22.04
2017-09-29T10:28:59.121Z,22.14
2017-09-29T10:29:59.041Z,22.17
2017-09-29T10:30:59.137Z,22.08
2017-09-29T10:31:59.064Z,22.08
2017-09-29T10:32:59.149Z,21.99
2017-09-29T10:33:59.081Z,21.93
2017-09-29T10:34:59.165Z,21.85
2017-09-29T10:35:59.101Z,21.82
2017-09-29T10:36:59.178Z,21.91
2017-09-29T10:37:59.131Z,21.77
2017-09-29T10:38:59.192Z,21.80
2017-09-29T10:39:59.148Z,21.77
2017-09-29T10:41:00.231Z,21.72
2017-09-29T10:41:59.170Z,21.75
2017-09-29T10:42:59.219Z,21.69
2017-09-29T10:43:59.192Z,21.66
2017-09-29T10:44:59.263Z,21.75
2017-09-29T10:45:59.220Z,21.91
2017-09-29T10:46:59.348Z,21.85
2017-09-29T10:47:59.236Z,21.88
2017-09-29T10:49:10.846Z,21.88
2017-09-29T10:49:59.260Z,21.73
2017-09-29T10:50:59.383Z,21.64
2017-09-29T10:51:59.285Z,21.66
2017-09-29T10:52:59.390Z,21.64
2017-09-29T10:53:59.304Z,21.60
2017-09-29T10:54:59.417Z,21.61
2017-09-29T10:55:59.330Z,21.67
2017-09-29T10:56:59.340Z,21.66
2017-09-29T10:57:59.348Z,21.72
2017-09-29T10:58:59.374Z,21.60
2017-09-29T10:59:59.437Z,21.57
2017-09-29T11:00:59.384Z,21.60
2017-09-29T11:01:59.394Z,21.66
2017-09-29T11:02:59.460Z,21.60
2017-09-29T11:03:59.423Z,21.64
2017-09-29T11:04:59.477Z,21.61
2017-09-29T11:05:59.438Z,21.62
2017-09-29T11:06:59.588Z,21.60
2017-09-29T11:07:59.470Z,21.58
2017-09-29T11:08:59.604Z,21.54
2017-09-29T11:09:59.485Z,21.62
2017-09-29T11:10:59.506Z,21.58
2017-09-29T11:11:59.623Z,21.64
2017-09-29T11:12:59.528Z,21.54
2017-09-29T11:13:59.640Z,21.61
2017-09-29T11:14:59.544Z,21.64
2017-09-29T11:15:59.650Z,21.61
2017-09-29T11:16:59.564Z,21.61
2017-09-29T11:17:59.674Z,21.67
2017-09-29T11:18:59.590Z,21.72
2017-09-29T11:19:59.675Z,21.61
2017-09-29T11:20:59.626Z,21.58
2017-09-29T11:21:59.699Z,21.64
2017-09-29T11:22:59.635Z,21.55
2017-09-29T11:23:59.806Z,21.54
2017-09-29T11:24:59.657Z,21.60
2017-09-29T11:25:59.675Z,21.67
2017-09-29T11:26:59.826Z,21.73
2017-09-29T11:27:59.694Z,21.62
2017-09-29T11:28:59.845Z,21.55
2017-09-29T11:29:59.721Z,21.61
2017-09-29T11:31:00.879Z,21.61
2017-09-29T11:31:59.744Z,21.61
2017-09-29T11:32:59.753Z,21.55
2017-09-29T11:33:59.880Z,21.70
2017-09-29T11:34:59.779Z,21.60
2017-09-29T11:35:59.895Z,21.62
2017-09-29T11:36:59.797Z,21.72
2017-09-29T11:37:59.909Z,21.75
2017-09-29T11:38:59.821Z,21.85
2017-09-29T11:39:59.914Z,21.92
2017-09-29T11:40:59.847Z,22.08
2017-09-29T11:42:00.957Z,22.08
2017-09-29T11:42:59.871Z,22.10
2017-09-29T11:43:59.946Z,22.13
2017-09-29T11:44:59.888Z,22.13
2017-09-29T11:45:59.927Z,22.20
2017-09-29T11:46:59.917Z,22.30
2017-09-29T11:48:00.074Z,22.35
2017-09-29T11:48:59.938Z,22.48
2017-09-29T11:49:59.952Z,22.59
2017-09-29T11:50:59.961Z,22.72
2017-09-29T11:52:01.120Z,22.80
2017-09-29T11:52:59.990Z,22.90
2017-09-29T11:54:00.112Z,23.02
2017-09-29T11:55:00.010Z,23.09
2017-09-29T11:56:00.131Z,23.15
2017-09-29T11:57:00.034Z,23.13
2017-09-29T11:58:00.141Z,23.10
2017-09-29T11:59:00.065Z,23.15
2017-09-29T12:00:00.156Z,23.13
2017-09-29T12:01:00.083Z,23.10
2017-09-29T12:02:00.095Z,23.10
2017-09-29T12:03:00.106Z,23.08
2017-09-29T12:04:00.182Z,23.08
2017-09-29T12:05:00.134Z,23.12
2017-09-29T12:06:00.299Z,23.10
2017-09-29T12:07:00.159Z,23.10
2017-09-29T12:08:00.309Z,23.09
2017-09-29T12:09:00.173Z,23.21
2017-09-29T12:10:00.372Z,23.21
2017-09-29T12:11:00.204Z,23.24
2017-09-29T12:12:00.349Z,23.34
2017-09-29T12:13:00.223Z,23.43
2017-09-29T12:14:00.352Z,23.46
2017-09-29T12:15:00.249Z,23.48
2017-09-29T12:16:00.266Z,23.47
2017-09-29T12:17:00.371Z,23.44
2017-09-29T12:18:00.285Z,23.25
2017-09-29T12:19:00.383Z,23.17
2017-09-29T12:20:00.317Z,23.12
2017-09-29T12:21:01.423Z,23.05
2017-09-29T12:22:00.332Z,23.06
2017-09-29T12:23:00.345Z,23.10
2017-09-29T12:24:00.527Z,23.09
2017-09-29T12:25:00.370Z,23.10
2017-09-29T12:26:00.536Z,23.08
2017-09-29T12:27:00.395Z,23.09
2017-09-29T12:28:00.402Z,23.13
2017-09-29T12:29:00.416Z,23.00
2017-09-29T12:30:00.427Z,22.90
2017-09-29T12:31:03.291Z,22.88
2017-09-29T12:32:00.461Z,22.83
2017-09-29T12:33:00.540Z,22.81
2017-09-29T12:34:00.564Z,22.76
2017-09-29T12:35:00.552Z,22.73
2017-09-29T12:36:00.504Z,22.72
2017-09-29T12:37:00.566Z,22.76
2017-09-29T12:38:00.525Z,22.73
2017-09-29T12:39:00.581Z,22.81
2017-09-29T12:40:00.552Z,22.76
2017-09-29T12:41:00.593Z,22.78
2017-09-29T12:42:00.583Z,22.81
2017-09-29T12:43:00.707Z,22.76
2017-09-29T12:44:00.601Z,22.68
2017-09-29T12:45:00.723Z,22.68
2017-09-29T12:46:00.625Z,22.68
2017-09-29T12:47:00.734Z,22.70
2017-09-29T12:48:00.649Z,22.70
2017-09-29T12:49:00.661Z,22.68
2017-09-29T12:50:00.756Z,22.68
2017-09-29T12:51:00.689Z,22.68
2017-09-29T12:52:00.770Z,22.80
2017-09-29T12:53:00.713Z,22.81